D/T METAR WX W/DIR W/SPE G/SPE TEMP DEWP
5/06/20 06:30 EINN 050530Z 30010KT 9999 FEW015 BKN060 12/08 Q1004 NOSIG WNW (300°) 11.5mph 12°C 8°C
5/06/20 06:00 EINN 050500Z 29010KT 9999 FEW016 SCT042 BKN080 11/08 Q1004 NOSIG WNW (290°) 11.5mph 11°C 8°C
5/06/20 05:30 EINN 050430Z 30009KT 9999 FEW019 BKN033 11/08 Q1004 NOSIG WNW (300°) 10.4mph 11°C 8°C
5/06/20 05:00 EINN 050400Z 30012KT 9999 BKN033 12/08 Q1004 NOSIG WNW (300°) 13.8mph 12°C 8°C
5/06/20 04:30 EINN 050330Z 29012KT 9999 FEW022 SCT037 BKN080 11/08 Q1004 NOSIG WNW (290°) 13.8mph 11°C 8°C
5/06/20 04:00 EINN 050300Z 28010KT 9999 FEW025 BKN090 11/08 Q1004 NOSIG W (280°) 11.5mph 11°C 8°C
5/06/20 03:30 EINN 050230Z 29010KT 9999 FEW019 BKN090 11/08 Q1004 NOSIG WNW (290°) 11.5mph 11°C 8°C
5/06/20 03:00 EINN 050200Z 29011KT 9999 FEW018 BKN090 11/08 Q1005 NOSIG WNW (290°) 12.7mph 11°C 8°C
5/06/20 02:30 EINN 050130Z 28013KT 9999 FEW034 BKN100 11/08 Q1005 NOSIG W (280°) 15.0mph 11°C 8°C
5/06/20 02:00 EINN 050100Z 30009KT 9999 FEW034 BKN100 11/08 Q1005 NOSIG WNW (300°) 10.4mph 11°C 8°C
5/06/20 01:30 EINN 050030Z 29011KT 9999 FEW034 BKN140 12/08 Q1005 NOSIG WNW (290°) 12.7mph 12°C 8°C
5/06/20 01:00 EINN 050000Z 30012KT 9999 FEW034 SCT140 11/08 Q1005 NOSIG WNW (300°) 13.8mph 11°C 8°C
5/06/20 00:30 EINN 042330Z 29012KT 9999 FEW035 SCT140 11/09 Q1005 NOSIG WNW (290°) 13.8mph 11°C 9°C
5/06/20 00:00 EINN 042300Z 29011KT 9999 FEW036 SCT140 11/08 Q1006 NOSIG WNW (290°) 12.7mph 11°C 8°C
4/06/20 23:30 EINN 042230Z 28009KT 9999 FEW035 SCT130 11/09 Q1005 NOSIG W (280°) 10.4mph 11°C 9°C
4/06/20 23:00 EINN 042200Z 28011KT 9999 FEW035 11/09 Q1006 NOSIG W (280°) 12.7mph 11°C 9°C
4/06/20 22:30 EINN 042130Z 29012KT 9999 FEW013 11/09 Q1006 NOSIG WNW (290°) 13.8mph 11°C 9°C
4/06/20 22:00 EINN 042100Z 29010KT 9999 FEW013 12/09 Q1005 NOSIG WNW (290°) 11.5mph 12°C 9°C
4/06/20 21:30 EINN 042030Z 30013KT 9999 FEW013 12/10 Q1006 NOSIG WNW (300°) 15.0mph 12°C 10°C
4/06/20 21:00 EINN 042000Z 29010KT 9999 FEW016 12/09 Q1006 NOSIG WNW (290°) 11.5mph 12°C 9°C
4/06/20 20:30 EINN 041930Z 29016KT 9999 FEW033 13/09 Q1005 NOSIG WNW (290°) 18.4mph 13°C 9°C
4/06/20 20:00 EINN 041900Z 29017KT 9999 FEW026 SCT040 13/10 Q1005 NOSIG WNW (290°) 19.6mph 13°C 10°C
4/06/20 19:30 EINN 041830Z 30016KT 9999 FEW019 SCT030 13/09 Q1005 NOSIG WNW (300°) 18.4mph 13°C 9°C
4/06/20 19:00 EINN 041800Z 29017KT 9999 FEW016 SCT160 14/10 Q1005 NOSIG WNW (290°) 19.6mph 14°C 10°C
4/06/20 18:30 EINN 041730Z 29018KT 9999 FEW014 SCT026 BKN038 14/10 Q1006 NOSIG WNW (290°) 20.7mph 14°C 10°C
4/06/20 18:00 EINN 041700Z 29015KT 9999 FEW014 BKN026 BKN040 14/10 Q1005 NOSIG WNW (290°) 17.3mph 14°C 10°C
4/06/20 17:30 EINN 041630Z 30014KT 9999 FEW012 BKN018 14/10 Q1006 NOSIG WNW (300°) 16.1mph 14°C 10°C
4/06/20 17:00 EINN 041600Z 30016KT 9999 FEW012 BKN017 BKN026 15/10 Q1006 NOSIG WNW (300°) 18.4mph 15°C 10°C
4/06/20 16:30 EINN 041530Z 29018KT 9999 FEW014 SCT018 BKN026 14/11 Q1006 NOSIG WNW (290°) 20.7mph 14°C 11°C
4/06/20 16:00 EINN 041500Z 29016KT 9999 FEW012 BKN019 BKN036 13/11 Q1006 NOSIG WNW (290°) 18.4mph 13°C 11°C
4/06/20 15:30 EINN 041430Z 29013KT 9999 -DZ SCT010 BKN013 13/11 Q1007 NOSIG -DZ WNW (290°) 15.0mph 13°C 11°C
4/06/20 15:00 EINN 041400Z 29010KT 9999 FEW010 BKN014 BKN018 13/11 Q1007 NOSIG WNW (290°) 11.5mph 13°C 11°C
4/06/20 14:30 EINN 041330Z 29015KT 9999 -DZ FEW008 BKN013 BKN017 13/10 Q1007 NOSIG -DZ WNW (290°) 17.3mph 13°C 10°C
4/06/20 14:00 EINN 041300Z 30014KT 9999 BKN008 BKN011 13/11 Q1008 NOSIG WNW (300°) 16.1mph 13°C 11°C
4/06/20 13:30 EINN 041230Z 29015KT 9999 -DZ SCT008 BKN011 BKN020 13/11 Q1008 NOSIG -DZ WNW (290°) 17.3mph 13°C 11°C
4/06/20 13:00 EINN 041200Z 29014KT 9999 -DZ FEW008 BKN012 BKN020 13/11 Q1008 NOSIG -DZ WNW (290°) 16.1mph 13°C 11°C
4/06/20 12:30 EINN 041130Z 28016KT 9999 -DZ BKN010 BKN020 13/11 Q1008 NOSIG -DZ W (280°) 18.4mph 13°C 11°C
4/06/20 12:00 EINN 041100Z 28014KT 9999 BKN012 BKN020 13/10 Q1009 NOSIG W (280°) 16.1mph 13°C 10°C
4/06/20 11:30 EINN 041030Z 29014KT 9999 BKN010 BKN018 12/10 Q1009 NOSIG WNW (290°) 16.1mph 12°C 10°C
4/06/20 11:00 EINN 041000Z 29010KT 9999 BKN010 BKN018 12/10 Q1010 NOSIG WNW (290°) 11.5mph 12°C 10°C
4/06/20 10:30 EINN 040930Z 28011KT 9999 BKN010 BKN016 BKN020 12/10 Q1010 NOSIG W (280°) 12.7mph 12°C 10°C
4/06/20 10:00 EINN 040900Z 27009KT 9999 -DZ FEW010 BKN014 BKN020 11/10 Q1010 NOSIG -DZ W (270°) 10.4mph 11°C 10°C
4/06/20 09:30 EINN 040830Z 28009KT 9999 -DZ FEW010 BKN016 BKN020 11/09 Q1011 NOSIG -DZ W (280°) 10.4mph 11°C 9°C
4/06/20 09:00 EINN 040800Z 29010KT 9999 FEW010 BKN016 BKN020 11/09 Q1011 NOSIG WNW (290°) 11.5mph 11°C 9°C
4/06/20 08:30 EINN 040730Z 30010KT 9999 SCT010 BKN016 BKN020 11/09 Q1011 NOSIG WNW (300°) 11.5mph 11°C 9°C
4/06/20 08:00 EINN 040700Z 30012KT 9999 FEW010 SCT014 BKN025 11/08 Q1012 NOSIG WNW (300°) 13.8mph 11°C 8°C
4/06/20 07:30 EINN 040630Z 30016KT 9000 FEW010 BKN020 BKN044 11/08 Q1012 NOSIG WNW (300°) 18.4mph 11°C 8°C
4/06/20 07:00 EINN 040600Z 31009KT 9999 FEW015 BKN025 OVC031 11/08 Q1012 NOSIG NW (310°) 10.4mph 11°C 8°C
4/06/20 06:30 EINN 040530Z 31011KT 9999 FEW015 BKN023 11/08 Q1012 NOSIG NW (310°) 12.7mph 11°C 8°C
4/06/20 06:00 EINN 040500Z 30009KT 9999 FEW015 BKN027 11/07 Q1013 NOSIG WNW (300°) 10.4mph 11°C 7°C
4/06/20 05:30 EINN 040430Z 29007KT 9999 FEW015 BKN026 11/06 Q1013 NOSIG WNW (290°) 8.1mph 11°C 6°C
4/06/20 05:00 EINN 040400Z 28007KT 9999 FEW018 OVC026 11/05 Q1013 NOSIG W (280°) 8.1mph 11°C 5°C
4/06/20 04:30 EINN 040330Z 29009KT 9999 FEW018 OVC028 11/05 Q1014 NOSIG WNW (290°) 10.4mph 11°C 5°C
4/06/20 04:00 EINN 040300Z 32006KT 9999 FEW018 BKN026 OVC034 11/05 Q1014 NOSIG NW (320°) 6.9mph 11°C 5°C
4/06/20 03:30 EINN 040230Z 32006KT 9999 FEW018 BKN027 BKN032 11/06 Q1014 NOSIG NW (320°) 6.9mph 11°C 6°C
4/06/20 03:00 EINN 040200Z 31006KT 9999 FEW026 SCT030 BKN037 10/06 Q1015 NOSIG NW (310°) 6.9mph 10°C 6°C
4/06/20 02:30 EINN 040130Z 32007KT 9999 FEW028 BKN038 BKN100 10/06 Q1015 NOSIG NW (320°) 8.1mph 10°C 6°C
4/06/20 02:00 EINN 040100Z 34006KT 9999 FEW030 SCT160 10/05 Q1016 NOSIG NNW (340°) 6.9mph 10°C 5°C
4/06/20 01:30 EINN 040030Z 36005KT 9999 FEW030 SCT160 10/05 Q1016 NOSIG N (360°) 5.8mph 10°C 5°C
4/06/20 01:00 EINN 040000Z 35010KT 9999 FEW030 BKN120 BKN180 10/05 Q1016 NOSIG N (350°) 11.5mph 10°C 5°C
4/06/20 00:30 EINN 032330Z 34010KT 9999 FEW020 BKN160 10/05 Q1016 NOSIG NNW (340°) 11.5mph 10°C 5°C
4/06/20 00:00 EINN 032300Z 35010KT 9999 FEW020 BKN160 11/05 Q1016 NOSIG N (350°) 11.5mph 11°C 5°C
3/06/20 23:30 EINN 032230Z 35012KT 9999 FEW020 BKN130 BKN180 11/05 Q1016 NOSIG N (350°) 13.8mph 11°C 5°C
3/06/20 23:00 EINN 032200Z 35010KT 9999 FEW020 SCT060 BKN160 11/04 Q1016 NOSIG N (350°) 11.5mph 11°C 4°C
3/06/20 22:30 EINN 032130Z 35011KT 9999 FEW025 BKN180 12/04 Q1016 NOSIG N (350°) 12.7mph 12°C 4°C
3/06/20 22:00 EINN 032100Z 35009KT 9999 FEW025 SCT100 BKN190 12/04 Q1017 NOSIG N (350°) 10.4mph 12°C 4°C
3/06/20 21:30 EINN 032030Z 34012KT 9999 FEW030 SCT140 12/05 Q1016 NOSIG NNW (340°) 13.8mph 12°C 5°C
3/06/20 21:00 EINN 032000Z 34013KT 9999 FEW030 SCT140 13/04 Q1016 NOSIG NNW (340°) 15.0mph 13°C 4°C
3/06/20 20:30 EINN 031930Z 34013KT 9999 FEW030 14/04 Q1016 NOSIG NNW (340°) 15.0mph 14°C 4°C
3/06/20 20:00 EINN 031900Z 34013KT 9999 FEW030 15/05 Q1016 NOSIG NNW (340°) 15.0mph 15°C 5°C
3/06/20 19:30 EINN 031830Z 35013KT 9999 FEW046 15/05 Q1016 NOSIG N (350°) 15.0mph 15°C 5°C
3/06/20 19:00 EINN 031800Z 35015KT CAVOK 16/04 Q1015 NOSIG N (350°) 17.3mph 16°C 4°C
3/06/20 18:30 EINN 031730Z 34016KT CAVOK 17/05 Q1015 NOSIG NNW (340°) 18.4mph 17°C 5°C
3/06/20 18:00 EINN 031700Z 34016KT CAVOK 17/05 Q1015 NOSIG NNW (340°) 18.4mph 17°C 5°C
3/06/20 17:30 EINN 031630Z 34017KT CAVOK 18/05 Q1015 NOSIG NNW (340°) 19.6mph 18°C 5°C
3/06/20 17:00 EINN 031600Z 36015KT CAVOK 18/05 Q1015 NOSIG N (360°) 17.3mph 18°C 5°C
3/06/20 16:30 EINN 031530Z 36017G27KT 320V020 CAVOK 18/05 Q1015 NOSIG N (360°) 19.6mph 31.1mph 18°C 5°C
3/06/20 16:00 EINN 031500Z 35015KT 320V030 9999 SCT048 18/05 Q1015 NOSIG N (350°) 17.3mph 18°C 5°C
3/06/20 15:00 EINN 031400Z 36014KT 330V050 9999 BKN045 18/05 Q1015 NOSIG N (360°) 16.1mph 18°C 5°C
3/06/20 14:30 EINN 031330Z 36015KT 9999 BKN045 18/05 Q1015 NOSIG N (360°) 17.3mph 18°C 5°C
3/06/20 14:00 EINN 031300Z 01013KT 340V040 9999 SCT045 17/05 Q1016 NOSIG N (10°) 15.0mph 17°C 5°C
3/06/20 13:30 EINN 031230Z 36014KT 9999 SCT040 17/06 Q1016 NOSIG N (360°) 16.1mph 17°C 6°C
3/06/20 13:00 EINN 031200Z 02013KT 9999 SCT038 17/06 Q1016 NOSIG NNE (20°) 15.0mph 17°C 6°C
3/06/20 12:30 EINN 031130Z 01015KT 9999 BKN038 17/06 Q1016 NOSIG N (10°) 17.3mph 17°C 6°C
3/06/20 12:00 EINN 031100Z 01015KT 330V030 9999 FEW019 BKN035 16/06 Q1016 NOSIG N (10°) 17.3mph 16°C 6°C
3/06/20 11:30 EINN 031030Z 36014KT 330V040 9999 FEW018 BKN032 15/07 Q1016 NOSIG N (360°) 16.1mph 15°C 7°C
3/06/20 11:00 EINN 031000Z 36014KT 9999 FEW018 BKN028 14/07 Q1017 NOSIG N (360°) 16.1mph 14°C 7°C
3/06/20 10:30 EINN 030930Z 36014KT 9999 FEW018 BKN025 14/07 Q1017 NOSIG N (360°) 16.1mph 14°C 7°C
3/06/20 10:00 EINN 030900Z 36014KT 9999 FEW018 BKN025 14/07 Q1017 NOSIG N (360°) 16.1mph 14°C 7°C
3/06/20 09:30 EINN 030830Z 36012KT 9999 FEW016 BKN025 13/07 Q1017 NOSIG N (360°) 13.8mph 13°C 7°C
3/06/20 09:00 EINN 030800Z 36015KT 9999 FEW016 BKN024 12/07 Q1017 NOSIG N (360°) 17.3mph 12°C 7°C
3/06/20 08:30 EINN 030730Z 36012KT 9999 FEW016 BKN025 12/07 Q1017 NOSIG N (360°) 13.8mph 12°C 7°C
3/06/20 08:00 EINN 030700Z 35016KT 9999 FEW015 12/07 Q1017 NOSIG N (350°) 18.4mph 12°C 7°C
3/06/20 07:30 EINN 030630Z 35014KT 9999 FEW010 12/07 Q1016 NOSIG N (350°) 16.1mph 12°C 7°C
3/06/20 07:00 EINN 030600Z 35014KT 9999 FEW010 12/08 Q1016 NOSIG N (350°) 16.1mph 12°C 8°C
3/06/20 06:30 EINN 030530Z 34013KT 9999 FEW008 BKN015 13/10 Q1016 TEMPO BKN010 NNW (340°) 15.0mph 13°C 10°C